Time;durP1;ratioP1;P1;durP2;ratioP2;P2;SDS_P1;SDS_P2;PMS_P1;PMS_P2;Temp;Humidity;BMP_temperature;BMP_pressure;BME280_temperature;BME280_humidity;BME280_pressure;Samples;Min_cycle;Max_cycle;Signal;HPM_P1;HPM_P2
2023/02/02 05:31:04;;;;;;;8.52;2.38;;;9.60;69.80;;;;;;5603519;23;20178;-88
2023/02/02 05:33:29;;;;;;;4.28;2.45;;;9.60;69.90;;;;;;4895835;29;20064;-80
2023/02/02 05:35:55;;;;;;;5.30;2.45;;;9.60;69.80;;;;;;4867767;29;20044;-83
2023/02/02 05:38:20;;;;;;;8.82;2.88;;;9.60;69.80;;;;;;4867883;29;20032;-83
2023/02/02 05:40:48;;;;;;;8.43;2.80;;;9.60;69.90;;;;;;4867607;29;20492;-86
2023/02/02 05:43:13;;;;;;;6.05;2.55;;;9.60;70.00;;;;;;4884270;29;20032;-83
2023/02/02 05:45:39;;;;;;;8.25;2.72;;;9.60;69.80;;;;;;4885198;29;20033;-78
2023/02/02 05:48:05;;;;;;;5.45;2.55;;;9.50;69.80;;;;;;4884239;29;20134;-80
2023/02/02 05:50:30;;;;;;;11.50;2.42;;;9.60;69.70;;;;;;4884458;29;20432;-79
2023/02/02 05:52:57;;;;;;;7.95;3.25;;;9.60;69.80;;;;;;4884015;29;20037;-79
2023/02/02 05:55:26;;;;;;;10.80;5.45;;;9.60;69.80;;;;;;4873512;29;20032;-78
2023/02/02 05:57:51;;;;;;;16.40;4.78;;;9.70;69.60;;;;;;4884228;29;20106;-79
2023/02/02 06:00:17;;;;;;;13.45;4.80;;;9.70;69.60;;;;;;4887827;29;20694;-82
2023/02/02 06:02:43;;;;;;;10.43;3.83;;;9.70;69.70;;;;;;4883260;29;20033;-82
2023/02/02 06:05:09;;;;;;;5.05;2.45;;;9.70;69.70;;;;;;4896864;29;20574;-83
2023/02/02 06:07:34;;;;;;;9.45;2.70;;;9.70;69.40;;;;;;4909372;29;20064;-82
2023/02/02 06:10:00;;;;;;;6.38;2.58;;;9.70;69.70;;;;;;4882050;29;20037;-83
2023/02/02 06:12:26;;;;;;;5.28;2.10;;;9.70;69.50;;;;;;4884508;29;20044;-83
2023/02/02 06:14:51;;;;;;;3.60;2.35;;;9.70;69.50;;;;;;4881091;29;20088;-88
2023/02/02 06:17:17;;;;;;;10.35;2.88;;;9.70;69.70;;;;;;4902331;29;20028;-90
2023/02/02 06:19:42;;;;;;;6.03;2.92;;;9.70;69.90;;;;;;4882142;29;20509;-83
2023/02/02 06:22:08;;;;;;;6.80;2.22;;;9.70;69.70;;;;;;4884207;29;20021;-85
2023/02/02 06:24:34;;;;;;;8.90;1.98;;;9.70;69.50;;;;;;4869065;29;20037;-84
2023/02/02 06:26:59;;;;;;;4.60;2.50;;;9.70;69.50;;;;;;4867726;29;20029;-79
2023/02/02 06:29:25;;;;;;;5.70;2.42;;;9.70;69.40;;;;;;4883524;29;20065;-80
2023/02/02 06:31:51;;;;;;;4.15;1.73;;;9.70;69.80;;;;;;4885319;29;20135;-80
2023/02/02 06:34:16;;;;;;;8.40;2.22;;;9.70;69.80;;;;;;4881962;29;20037;-80
2023/02/02 06:36:42;;;;;;;5.18;1.95;;;9.70;69.90;;;;;;4873032;29;20031;-80
2023/02/02 06:39:08;;;;;;;4.25;2.28;;;9.70;69.80;;;;;;4902575;29;20032;-80
2023/02/02 06:41:34;;;;;;;12.43;2.33;;;9.70;70.00;;;;;;4882916;29;20471;-80
2023/02/02 06:44:00;;;;;;;4.68;2.33;;;9.60;70.20;;;;;;4902477;29;20033;-82
2023/02/02 06:46:26;;;;;;;8.05;2.50;;;9.60;70.10;;;;;;4902288;29;20021;-80
2023/02/02 06:48:52;;;;;;;3.20;2.47;;;9.50;70.30;;;;;;4902249;29;20039;-82
2023/02/02 06:51:18;;;;;;;3.15;2.25;;;9.60;70.40;;;;;;4901548;29;20035;-82
2023/02/02 06:53:50;;;;;;;5.30;2.20;;;9.50;70.50;;;;;;4900967;29;20088;-82
2023/02/02 06:56:16;;;;;;;6.72;2.80;;;9.60;70.50;;;;;;4884765;29;20047;-81
2023/02/02 06:58:41;;;;;;;6.78;2.72;;;9.50;70.50;;;;;;4900346;29;20036;-82
2023/02/02 07:01:10;;;;;;;5.72;2.45;;;9.50;70.60;;;;;;4909671;29;20507;-81
2023/02/02 07:03:39;;;;;;;9.80;2.58;;;9.60;70.60;;;;;;4912495;29;20803;-82
2023/02/02 07:06:16;;;;;;;8.18;2.65;;;9.60;70.40;;;;;;4892574;29;20052;-89
2023/02/02 07:08:42;;;;;;;3.80;2.33;;;9.60;70.40;;;;;;4900544;29;20103;-80
2023/02/02 07:11:08;;;;;;;7.80;2.58;;;9.70;70.40;;;;;;4920136;29;20032;-82
2023/02/02 07:13:34;;;;;;;5.35;2.42;;;9.60;70.40;;;;;;4902328;29;20040;-83
2023/02/02 07:16:03;;;;;;;7.05;2.95;;;9.60;70.40;;;;;;4920753;29;20396;-83
2023/02/02 07:18:29;;;;;;;9.90;3.58;;;9.60;70.60;;;;;;4902764;29;20024;-83
2023/02/02 07:20:59;;;;;;;11.55;3.15;;;9.60;70.40;;;;;;4921589;29;20028;-84
2023/02/02 07:23:26;;;;;;;5.53;2.17;;;9.60;70.70;;;;;;4917208;29;20042;-83
2023/02/02 07:26:39;;;;;;;9.25;3.30;;;9.60;70.60;;;;;;4918798;29;20048;-85
2023/02/02 07:29:05;;;;;;;8.57;2.58;;;9.60;70.20;;;;;;4899078;29;20107;-82
2023/02/02 07:31:31;;;;;;;3.95;2.35;;;9.60;70.60;;;;;;4900850;29;20048;-80
2023/02/02 07:33:56;;;;;;;6.30;2.67;;;9.60;70.30;;;;;;4902144;29;20029;-88
2023/02/02 07:36:23;;;;;;;9.50;2.92;;;9.60;70.30;;;;;;4892075;29;20376;-82
2023/02/02 07:38:56;;;;;;;6.22;2.60;;;9.70;70.30;;;;;;4898590;29;20043;-82
2023/02/02 07:41:22;;;;;;;3.22;2.90;;;9.60;70.30;;;;;;4901227;29;20032;-83
2023/02/02 07:43:48;;;;;;;6.25;2.50;;;9.70;70.20;;;;;;4902616;29;20060;-82
2023/02/02 07:46:16;;;;;;;8.40;2.85;;;9.70;70.30;;;;;;4898962;29;20032;-82
2023/02/02 07:48:59;;;;;;;6.53;2.70;;;9.70;70.30;;;;;;4901737;29;20153;-82
2023/02/02 07:51:25;;;;;;;10.70;2.97;;;9.70;70.30;;;;;;4915686;29;20028;-82
2023/02/02 07:53:53;;;;;;;8.40;3.45;;;9.70;70.10;;;;;;4918873;29;20095;-82
2023/02/02 07:56:24;;;;;;;4.00;2.58;;;9.70;70.30;;;;;;4902059;29;20044;-82
2023/02/02 07:58:54;;;;;;;7.75;2.35;;;9.70;70.10;;;;;;4918719;29;20051;-82
2023/02/02 08:01:21;;;;;;;9.95;3.53;;;9.70;70.20;;;;;;4910861;29;20029;-82
2023/02/02 08:03:48;;;;;;;9.38;2.75;;;9.70;70.50;;;;;;4888780;29;20032;-90
2023/02/02 08:06:18;;;;;;;8.85;2.97;;;9.70;70.20;;;;;;4917443;29;20029;-84
2023/02/02 08:08:45;;;;;;;10.10;3.08;;;9.70;70.20;;;;;;4898434;29;20786;-85
2023/02/02 08:11:12;;;;;;;4.70;2.85;;;9.70;70.20;;;;;;4908265;29;20175;-85
2023/02/02 08:13:39;;;;;;;14.32;2.90;;;9.70;70.00;;;;;;4919868;29;20396;-85
2023/02/02 08:16:06;;;;;;;5.30;2.63;;;9.80;70.00;;;;;;4920394;29;20064;-85
2023/02/02 08:18:32;;;;;;;6.43;2.60;;;9.80;70.00;;;;;;4904992;29;20028;-85
2023/02/02 08:20:59;;;;;;;9.40;3.42;;;9.80;69.90;;;;;;4901415;29;20029;-85
2023/02/02 08:23:26;;;;;;;4.70;2.40;;;9.90;69.90;;;;;;4900879;29;20103;-85
2023/02/02 08:25:53;;;;;;;6.43;2.85;;;9.80;69.80;;;;;;4883885;29;20068;-85
2023/02/02 08:28:18;;;;;;;5.15;2.13;;;9.90;69.80;;;;;;4901275;29;20036;-85
2023/02/02 08:30:45;;;;;;;9.45;2.92;;;9.90;70.00;;;;;;4900906;29;20056;-84
2023/02/02 08:33:11;;;;;;;8.82;2.83;;;9.90;70.10;;;;;;4913414;29;20028;-85
2023/02/02 08:35:43;;;;;;;6.50;2.53;;;9.90;69.90;;;;;;4907460;29;20044;-85
2023/02/02 08:38:09;;;;;;;5.95;2.50;;;9.90;70.10;;;;;;4883995;29;20036;-85
2023/02/02 08:40:34;;;;;;;7.50;2.85;;;9.90;70.10;;;;;;4883895;29;20035;-85
2023/02/02 08:43:02;;;;;;;6.93;2.63;;;9.90;69.70;;;;;;4884050;29;20528;-85
2023/02/02 08:45:28;;;;;;;12.07;2.65;;;9.90;69.70;;;;;;4883389;29;20043;-85
2023/02/02 08:47:54;;;;;;;5.13;2.90;;;10.00;69.70;;;;;;4900705;29;20033;-85
2023/02/02 08:50:19;;;;;;;4.13;2.30;;;10.00;69.80;;;;;;4900585;29;20060;-85
2023/02/02 08:52:45;;;;;;;6.30;2.83;;;10.00;69.70;;;;;;4898357;29;20033;-85
2023/02/02 08:55:11;;;;;;;8.75;2.72;;;10.10;69.70;;;;;;4891302;29;20484;-85
2023/02/02 08:57:36;;;;;;;6.78;2.65;;;10.10;70.10;;;;;;4918139;29;20028;-85
2023/02/02 09:00:05;;;;;;;8.95;2.83;;;10.10;69.70;;;;;;4909555;29;20064;-85
2023/02/02 09:02:31;;;;;;;5.80;2.30;;;10.10;69.70;;;;;;4901316;29;20021;-85
2023/02/02 09:04:57;;;;;;;7.10;2.55;;;10.20;69.70;;;;;;4919502;29;20392;-85
2023/02/02 09:07:23;;;;;;;7.97;3.28;;;10.20;69.60;;;;;;4907684;29;20077;-85
2023/02/02 09:09:50;;;;;;;6.45;2.97;;;10.20;69.80;;;;;;4901127;29;20115;-85
2023/02/02 09:12:16;;;;;;;7.70;2.78;;;10.10;69.40;;;;;;4917574;29;20024;-85
2023/02/02 09:14:42;;;;;;;10.05;3.30;;;10.20;69.90;;;;;;4900730;29;20047;-85
2023/02/02 09:17:07;;;;;;;4.75;2.92;;;10.20;70.00;;;;;;4900871;29;20031;-86
2023/02/02 09:19:33;;;;;;;12.98;3.17;;;10.30;70.00;;;;;;4900971;29;20029;-86
2023/02/02 09:21:59;;;;;;;11.88;4.60;;;10.30;70.10;;;;;;4900592;29;20777;-83
2023/02/02 09:24:24;;;;;;;8.00;4.03;;;10.30;70.00;;;;;;4884075;29;20407;-85
2023/02/02 09:26:50;;;;;;;9.57;3.38;;;10.30;69.90;;;;;;4900317;29;20065;-85
2023/02/02 09:29:19;;;;;;;9.15;3.33;;;10.30;69.90;;;;;;4888942;29;20060;-85
2023/02/02 09:31:45;;;;;;;13.00;4.60;;;10.30;69.50;;;;;;4900929;29;20411;-85
2023/02/02 09:34:13;;;;;;;8.10;3.60;;;10.30;69.60;;;;;;4902324;29;20506;-83
2023/02/02 09:36:40;;;;;;;6.70;2.60;;;10.40;69.50;;;;;;4919125;29;20460;-84
2023/02/02 09:39:07;;;;;;;10.55;2.83;;;10.50;69.50;;;;;;4910258;29;20127;-83
2023/02/02 09:41:39;;;;;;;13.85;2.88;;;10.50;69.00;;;;;;4900183;29;20832;-84
2023/02/02 09:44:19;;;;;;;10.50;3.35;;;10.50;69.40;;;;;;4883365;29;20037;-84
2023/02/02 09:47:16;;;;;;;15.60;3.63;;;10.50;69.10;;;;;;4899731;29;20033;-84
2023/02/02 09:49:51;;;;;;;13.07;2.85;;;10.60;68.90;;;;;;4886117;29;20451;-84
2023/02/02 09:52:29;;;;;;;8.80;3.15;;;10.60;68.80;;;;;;4903525;29;20080;-84
2023/02/02 09:55:02;;;;;;;10.65;2.97;;;10.70;69.00;;;;;;4909666;29;20044;-84
2023/02/02 09:57:38;;;;;;;9.93;3.15;;;10.60;68.30;;;;;;4902113;29;20037;-83
2023/02/02 10:00:05;;;;;;;6.35;2.90;;;10.60;68.70;;;;;;4886767;29;20043;-84
2023/02/02 10:02:44;;;;;;;4.90;2.70;;;10.70;68.50;;;;;;4904463;29;20032;-84
2023/02/02 10:05:21;;;;;;;8.48;3.97;;;10.70;68.40;;;;;;4916751;29;20025;-84
2023/02/02 10:07:52;;;;;;;5.05;2.45;;;10.80;68.50;;;;;;4904095;29;20480;-84
2023/02/02 10:10:26;;;;;;;10.65;3.03;;;10.80;68.10;;;;;;4905693;29;20844;-84
2023/02/02 10:13:07;;;;;;;8.23;2.83;;;10.80;67.90;;;;;;4922667;29;20467;-84
2023/02/02 10:16:02;;;;;;;12.77;3.13;;;10.90;67.80;;;;;;4921948;29;20043;-84
2023/02/02 10:18:43;;;;;;;11.30;2.70;;;10.90;68.00;;;;;;4918090;29;20503;-84
2023/02/02 10:21:53;;;;;;;6.03;2.70;;;11.00;67.80;;;;;;4900619;29;20033;-85
2023/02/02 10:24:23;;;;;;;8.30;2.47;;;11.20;67.60;;;;;;4867841;29;20526;-85
2023/02/02 10:26:52;;;;;;;4.93;2.28;;;11.20;66.90;;;;;;4902600;29;20033;-84
2023/02/02 10:29:55;;;;;;;6.93;3.03;;;11.30;66.90;;;;;;4886075;29;20033;-84
2023/02/02 10:32:23;;;;;;;5.75;2.28;;;11.40;67.00;;;;;;4904396;29;20076;-84
2023/02/02 10:34:55;;;;;;;5.63;2.13;;;11.50;66.90;;;;;;4904960;29;20119;-84
2023/02/02 10:37:55;;;;;;;5.55;2.67;;;11.60;66.70;;;;;;4902914;29;20029;-85
2023/02/02 10:40:41;;;;;;;5.72;2.50;;;11.60;66.20;;;;;;4885814;29;20091;-84
2023/02/02 10:43:50;;;;;;;6.25;2.45;;;11.70;66.10;;;;;;4886217;29;20036;-84
2023/02/02 10:46:30;;;;;;;11.23;3.30;;;11.70;66.00;;;;;;4902885;29;20037;-85
2023/02/02 10:49:17;;;;;;;5.95;2.20;;;11.80;65.90;;;;;;4903017;29;20017;-84
2023/02/02 10:51:56;;;;;;;8.65;2.83;;;11.80;65.80;;;;;;4902648;29;20071;-84
2023/02/02 10:54:45;;;;;;;4.15;2.20;;;11.80;65.40;;;;;;4902307;29;20028;-84
2023/02/02 10:57:18;;;;;;;6.13;3.03;;;11.80;65.60;;;;;;4877483;29;20047;-84
2023/02/02 11:00:08;;;;;;;8.18;2.83;;;11.80;65.80;;;;;;4920491;29;20043;-85
2023/02/02 11:02:33;;;;;;;;;;;11.80;66.20;;;;;;4910200;29;20515;-84
2023/02/02 11:07:43;;;;;;;5.18;2.03;;;11.90;65.80;;;;;;4917257;29;20031;-84
2023/02/02 11:10:09;;;;;;;3.45;2.00;;;11.90;65.60;;;;;;4898187;29;20040;-84
2023/02/02 11:12:40;;;;;;;7.28;2.40;;;12.00;65.90;;;;;;4920894;29;20028;-84
2023/02/02 11:15:07;;;;;;;;;;;12.00;65.40;;;;;;4900548;29;20089;-84
2023/02/02 11:17:33;;;;;;;4.47;1.80;;;12.10;65.10;;;;;;4908868;29;20406;-84
2023/02/02 11:19:59;;;;;;;5.53;2.35;;;12.10;65.40;;;;;;4905459;29;20029;-84
2023/02/02 11:22:32;;;;;;;8.07;2.47;;;12.20;65.30;;;;;;4885142;29;20029;-84
2023/02/02 11:25:00;;;;;;;6.10;2.08;;;12.30;64.90;;;;;;4885357;29;20492;-84
2023/02/02 11:27:38;;;;;;;7.03;2.85;;;12.30;64.90;;;;;;4905248;29;20106;-84
2023/02/02 11:30:29;;;;;;;6.88;2.15;;;12.30;64.30;;;;;;4901609;29;20055;-84
2023/02/02 11:32:55;;;;;;;5.05;2.20;;;12.30;64.00;;;;;;4911730;29;20127;-84
2023/02/02 11:35:26;;;;;;;6.57;1.95;;;12.40;64.10;;;;;;4921257;29;20028;-84
2023/02/02 11:38:15;;;;;;;5.43;2.20;;;12.30;64.30;;;;;;4896739;29;20029;-84
2023/02/02 11:40:51;;;;;;;5.18;2.05;;;12.40;64.20;;;;;;4884678;29;20084;-84
2023/02/02 11:43:39;;;;;;;4.18;2.10;;;12.50;64.10;;;;;;4884698;29;20067;-84
2023/02/02 11:46:15;;;;;;;4.97;2.10;;;12.50;63.60;;;;;;4901498;29;20031;-84
2023/02/02 11:49:07;;;;;;;10.45;2.63;;;12.50;63.80;;;;;;4901667;29;20099;-84
2023/02/02 11:51:33;;;;;;;9.50;2.35;;;12.60;63.80;;;;;;4871607;29;20070;-84
2023/02/02 11:54:21;;;;;;;5.22;2.03;;;12.70;63.60;;;;;;4901279;29;20484;-84
2023/02/02 11:56:53;;;;;;;8.75;2.20;;;12.70;63.20;;;;;;4901306;29;20119;-84
2023/02/02 11:59:29;;;;;;;4.15;1.92;;;12.80;63.00;;;;;;4901378;29;20455;-85
2023/02/02 12:02:19;;;;;;;4.47;2.10;;;12.80;63.00;;;;;;4895744;29;20036;-84
2023/02/02 12:04:46;;;;;;;5.38;2.10;;;12.90;62.90;;;;;;4920106;29;20028;-84
2023/02/02 12:07:29;;;;;;;5.35;2.10;;;12.90;62.70;;;;;;4920053;29;20080;-84
2023/02/02 12:10:18;;;;;;;4.45;2.17;;;13.00;62.60;;;;;;4920122;29;20040;-84
2023/02/02 12:13:03;;;;;;;6.05;2.03;;;12.90;62.50;;;;;;4900741;29;20058;-84
2023/02/02 12:15:53;;;;;;;7.10;2.28;;;12.80;62.60;;;;;;4900691;29;20029;-84
2023/02/02 12:18:49;;;;;;;5.85;2.05;;;12.80;62.10;;;;;;4900817;29;20032;-83
2023/02/02 12:21:47;;;;;;;6.32;2.47;;;12.70;63.10;;;;;;4901017;29;20045;-83
2023/02/02 12:24:33;;;;;;;7.53;2.50;;;12.80;63.00;;;;;;4876100;29;20100;-83
2023/02/02 12:27:20;;;;;;;5.00;2.90;;;12.80;63.10;;;;;;4884199;29;20115;-84
2023/02/02 12:29:59;;;;;;;3.78;2.33;;;12.80;63.10;;;;;;4900967;29;20555;-83
2023/02/02 12:32:35;;;;;;;4.10;1.77;;;12.90;63.00;;;;;;4906726;29;20060;-83
2023/02/02 12:35:44;;;;;;;4.10;2.13;;;13.00;62.80;;;;;;4920030;29;20028;-84
2023/02/02 12:38:42;;;;;;;5.60;2.20;;;12.90;61.90;;;;;;4868828;29;20045;-83
2023/02/02 12:41:29;;;;;;;8.35;2.17;;;12.90;61.50;;;;;;4900804;29;20087;-83
2023/02/02 12:44:53;;;;;;;8.95;2.45;;;12.90;62.50;;;;;;4900580;29;20108;-83
2023/02/02 12:47:34;;;;;;;3.28;2.20;;;13.00;62.60;;;;;;4797843;29;20039;-83
2023/02/02 12:50:23;;;;;;;6.65;2.20;;;13.00;62.30;;;;;;4900523;29;20575;-83
2023/02/02 12:53:01;;;;;;;4.28;2.30;;;13.00;62.00;;;;;;4873558;29;20519;-83
2023/02/02 12:55:39;;;;;;;4.00;2.10;;;13.10;61.90;;;;;;4900858;29;20043;-83
2023/02/02 12:58:29;;;;;;;8.02;1.92;;;13.10;62.20;;;;;;4902562;29;20028;-83
2023/02/02 13:01:04;;;;;;;4.00;2.35;;;13.10;61.90;;;;;;4901769;29;20024;-83
2023/02/02 13:03:52;;;;;;;7.53;1.98;;;13.00;61.50;;;;;;4916487;29;20032;-84
2023/02/02 13:07:00;;;;;;;2.92;1.75;;;13.10;62.10;;;;;;4902610;29;20025;-83
2023/02/02 13:09:32;;;;;;;5.28;1.35;;;13.00;61.40;;;;;;4915057;29;20035;-83
2023/02/02 13:12:06;;;;;;;2.38;1.17;;;13.00;61.40;;;;;;4915702;29;20060;-83
2023/02/02 13:14:37;;;;;;;3.95;1.40;;;13.10;60.90;;;;;;4919756;29;20062;-83
2023/02/02 13:17:27;;;;;;;4.30;1.38;;;13.20;60.90;;;;;;4902226;29;20032;-84
2023/02/02 13:20:06;;;;;;;2.55;1.30;;;13.10;60.40;;;;;;4909367;29;20071;-84
2023/02/02 13:22:40;;;;;;;4.78;1.30;;;13.10;60.10;;;;;;4900390;29;20020;-82
2023/02/02 13:25:14;;;;;;;3.17;1.80;;;13.20;61.20;;;;;;4887429;29;20029;-83
2023/02/02 13:27:42;;;;;;;5.55;1.52;;;13.20;61.20;;;;;;4904498;29;20024;-83
2023/02/02 13:30:25;;;;;;;3.40;1.38;;;13.20;60.90;;;;;;4904180;29;20416;-84
2023/02/02 13:32:52;;;;;;;5.13;1.48;;;13.20;60.40;;;;;;4904215;29;20555;-83
2023/02/02 13:35:23;;;;;;;4.88;1.40;;;13.20;60.60;;;;;;4903722;29;20537;-83
2023/02/02 13:38:09;;;;;;;5.15;1.70;;;13.20;60.40;;;;;;4905178;29;20032;-83
2023/02/02 13:40:39;;;;;;;5.18;1.45;;;13.20;60.20;;;;;;4902215;29;20134;-83
2023/02/02 13:43:16;;;;;;;5.25;1.30;;;13.10;59.80;;;;;;4886754;29;20253;-83
2023/02/02 13:45:54;;;;;;;4.82;1.48;;;13.10;60.00;;;;;;4903510;29;20040;-83
2023/02/02 13:48:46;;;;;;;4.38;2.00;;;13.10;59.70;;;;;;4903549;29;20033;-83
2023/02/02 13:51:30;;;;;;;3.17;1.45;;;13.10;59.90;;;;;;4886786;29;20052;-83
2023/02/02 13:54:05;;;;;;;4.68;1.00;;;13.00;59.80;;;;;;4900631;29;20075;-83
2023/02/02 13:56:36;;;;;;;4.53;1.17;;;12.90;59.50;;;;;;4921302;29;20507;-83
2023/02/02 13:59:05;;;;;;;4.50;1.23;;;12.90;60.20;;;;;;4922280;29;20060;-84
2023/02/02 14:01:31;;;;;;;3.25;1.45;;;12.90;59.60;;;;;;4915706;29;20096;-84
2023/02/02 14:03:59;;;;;;;4.45;1.45;;;12.90;59.10;;;;;;4922328;29;20436;-84
2023/02/02 14:06:26;;;;;;;4.57;1.38;;;13.00;60.20;;;;;;4905900;29;20028;-83
2023/02/02 14:08:56;;;;;;;4.03;1.15;;;12.90;59.50;;;;;;4902128;29;20043;-83
2023/02/02 14:11:30;;;;;;;;;;;12.90;59.60;;;;;;4914093;29;20028;-84
2023/02/02 14:14:33;;;;;;;5.47;1.27;;;12.90;60.20;;;;;;4922605;29;19907;-83
2023/02/02 14:17:03;;;;;;;1.67;1.10;;;12.90;60.00;;;;;;4919139;29;20036;-83
2023/02/02 14:19:35;;;;;;;1.80;1.10;;;12.90;60.10;;;;;;4886304;29;20033;-83
2023/02/02 14:22:12;;;;;;;5.47;1.73;;;12.90;60.40;;;;;;4886277;29;20037;-83
2023/02/02 14:24:44;;;;;;;7.50;1.65;;;13.00;60.90;;;;;;4902814;29;20048;-83
2023/02/02 14:27:10;;;;;;;4.18;1.40;;;13.00;60.30;;;;;;4886130;29;20036;-83
2023/02/02 14:29:56;;;;;;;6.20;1.40;;;13.00;60.40;;;;;;4902789;29;20025;-83
2023/02/02 14:32:26;;;;;;;3.90;1.30;;;13.10;60.40;;;;;;4908520;29;20051;-83
2023/02/02 14:35:07;;;;;;;6.05;2.22;;;13.00;60.90;;;;;;4912464;29;20021;-83
2023/02/02 14:37:46;;;;;;;2.95;1.25;;;13.00;60.80;;;;;;4903044;29;20504;-83
2023/02/02 14:40:38;;;;;;;4.63;2.00;;;13.00;59.90;;;;;;4888689;29;20036;-83
2023/02/02 14:43:48;;;;;;;5.18;1.70;;;12.90;60.50;;;;;;4892154;29;20063;-83
2023/02/02 14:46:14;;;;;;;5.53;1.58;;;12.90;60.30;;;;;;4921633;29;20052;-83
2023/02/02 14:48:56;;;;;;;4.82;1.65;;;12.90;60.80;;;;;;4921276;29;20028;-83
2023/02/02 14:51:27;;;;;;;3.20;1.60;;;12.90;60.70;;;;;;4889993;29;20124;-83
2023/02/02 14:54:03;;;;;;;4.00;1.63;;;12.90;61.10;;;;;;4921496;29;20027;-83
2023/02/02 14:56:48;;;;;;;3.45;1.35;;;12.90;60.60;;;;;;4904633;29;20091;-83
2023/02/02 14:59:37;;;;;;;5.80;2.05;;;12.80;60.20;;;;;;4903178;29;20032;-83
2023/02/02 15:02:21;;;;;;;3.85;1.63;;;12.90;60.80;;;;;;4917232;29;20046;-83
2023/02/02 15:04:48;;;;;;;3.65;1.95;;;12.80;60.80;;;;;;4918444;29;20080;-83
2023/02/02 15:07:49;;;;;;;4.05;1.85;;;12.80;61.00;;;;;;4921384;29;20036;-83
2023/02/02 15:10:52;;;;;;;1.92;1.40;;;12.90;61.30;;;;;;4916753;29;20043;-83
2023/02/02 15:13:23;;;;;;;2.55;1.45;;;12.90;61.60;;;;;;4920310;29;20483;-83
2023/02/02 15:15:58;;;;;;;3.45;2.40;;;12.90;61.50;;;;;;4921101;29;20059;-83
2023/02/02 15:18:38;;;;;;;4.47;1.70;;;12.90;61.20;;;;;;4892767;29;20503;-83
2023/02/02 15:21:05;;;;;;;;;;;12.80;61.20;;;;;;4902298;29;20407;-83
2023/02/02 15:23:37;;;;;;;2.90;1.77;;;12.80;60.90;;;;;;4901220;29;19919;-83
2023/02/02 15:26:23;;;;;;;5.70;2.00;;;12.80;61.20;;;;;;4884997;29;20536;-83
2023/02/02 15:28:56;;;;;;;4.47;1.45;;;12.80;61.70;;;;;;4901682;29;20016;-83
2023/02/02 15:31:46;;;;;;;4.80;1.70;;;12.80;61.50;;;;;;4901251;29;20053;-83
2023/02/02 15:34:32;;;;;;;;;;;12.70;61.70;;;;;;4874047;29;20044;-83
2023/02/02 15:37:01;;;;;;;6.38;2.00;;;12.60;61.10;;;;;;4901013;29;19922;-83
2023/02/02 15:39:56;;;;;;;9.25;2.47;;;12.60;61.90;;;;;;4885182;29;20060;-83
2023/02/02 15:42:52;;;;;;;6.10;2.10;;;12.60;62.10;;;;;;4885163;29;20497;-83
2023/02/02 15:45:49;;;;;;;4.63;1.92;;;12.60;62.10;;;;;;4912123;29;20028;-83
2023/02/02 15:48:28;;;;;;;4.60;2.40;;;12.60;62.20;;;;;;4909670;29;20118;-83
2023/02/02 15:50:54;;;;;;;4.00;2.25;;;12.60;62.00;;;;;;4901556;29;20029;-84
2023/02/02 15:53:24;;;;;;;3.80;2.40;;;12.50;61.90;;;;;;4884948;29;20084;-83
2023/02/02 15:55:51;;;;;;;8.03;2.40;;;12.50;62.60;;;;;;4884781;29;20079;-83
2023/02/02 15:58:27;;;;;;;6.22;2.17;;;12.40;62.50;;;;;;4884900;29;20036;-83
2023/02/02 16:00:59;;;;;;;6.25;2.38;;;12.40;62.40;;;;;;4889881;29;20079;-83
2023/02/02 16:03:55;;;;;;;9.25;3.05;;;12.40;62.60;;;;;;4903037;29;20039;-83
2023/02/02 16:06:21;;;;;;;5.90;2.65;;;12.40;62.80;;;;;;4872211;29;20160;-83
2023/02/02 16:08:47;;;;;;;6.90;2.92;;;12.40;62.50;;;;;;4884689;29;20056;-83
2023/02/02 16:11:13;;;;;;;5.93;2.80;;;12.40;62.90;;;;;;4893107;29;20043;-83
2023/02/02 16:13:40;;;;;;;5.78;2.70;;;12.30;62.40;;;;;;4903308;29;20064;-83
2023/02/02 16:16:30;;;;;;;3.35;1.95;;;12.30;62.40;;;;;;4918165;29;20032;-83
2023/02/02 16:19:12;;;;;;;9.82;3.72;;;12.30;62.70;;;;;;4901004;29;20033;-83
2023/02/02 16:21:44;;;;;;;6.38;3.65;;;12.30;62.90;;;;;;4884170;29;20028;-83
2023/02/02 16:24:20;;;;;;;6.80;3.15;;;12.30;63.00;;;;;;4887026;29;20115;-84
2023/02/02 16:26:46;;;;;;;4.82;2.30;;;12.30;63.50;;;;;;4900013;29;20033;-84
2023/02/02 16:29:16;;;;;;;2.35;1.85;;;12.20;63.20;;;;;;4884034;29;20029;-83
2023/02/02 16:31:44;;;;;;;5.03;1.53;;;12.20;63.30;;;;;;4901304;29;20097;-83
2023/02/02 16:34:38;;;;;;;2.35;1.38;;;12.20;63.00;;;;;;4919756;29;20280;-83
2023/02/02 16:37:15;;;;;;;5.22;1.77;;;12.20;63.40;;;;;;4884149;29;20040;-83
2023/02/02 16:39:41;;;;;;;4.32;1.65;;;12.20;63.50;;;;;;4900863;29;20024;-83
2023/02/02 16:42:09;;;;;;;3.63;2.42;;;12.10;63.30;;;;;;4885832;29;20040;-83
2023/02/02 16:44:42;;;;;;;4.38;2.33;;;12.00;63.10;;;;;;4884297;29;20025;-86
2023/02/02 16:47:29;;;;;;;5.75;2.33;;;12.00;63.30;;;;;;4884364;29;20111;-82
2023/02/02 16:50:06;;;;;;;4.43;2.03;;;12.00;63.50;;;;;;4892139;29;20028;-82
2023/02/02 16:52:34;;;;;;;6.78;2.05;;;12.00;63.60;;;;;;4923648;29;20028;-82
2023/02/02 16:55:01;;;;;;;3.85;2.30;;;11.90;63.70;;;;;;4919355;29;20086;-82
2023/02/02 16:57:30;;;;;;;4.03;1.98;;;11.90;64.00;;;;;;4917315;29;20016;-81
2023/02/02 16:59:58;;;;;;;4.45;2.10;;;12.00;63.80;;;;;;4904151;29;20036;-82
2023/02/02 17:02:39;;;;;;;6.70;2.40;;;11.90;63.90;;;;;;4917749;29;20486;-82
2023/02/02 17:05:24;;;;;;;4.43;2.28;;;11.90;64.10;;;;;;4900105;29;20028;-82
2023/02/02 17:07:57;;;;;;;7.57;2.60;;;11.90;64.10;;;;;;4918090;29;20027;-82
2023/02/02 17:10:34;;;;;;;6.18;2.80;;;11.90;64.50;;;;;;4921509;29;20020;-82
2023/02/02 17:13:02;;;;;;;3.05;1.85;;;11.80;64.30;;;;;;4907514;29;20060;-82
2023/02/02 17:15:33;;;;;;;5.70;2.53;;;11.90;64.50;;;;;;4903285;29;20032;-81
2023/02/02 17:17:59;;;;;;;4.88;2.45;;;11.80;64.10;;;;;;4919573;29;20028;-81
2023/02/02 17:20:28;;;;;;;4.22;2.50;;;11.80;64.30;;;;;;4922686;29;20107;-82
2023/02/02 17:23:05;;;;;;;6.63;2.70;;;11.80;63.90;;;;;;4921775;29;20043;-82
2023/02/02 17:25:49;;;;;;;6.53;2.08;;;11.80;64.20;;;;;;4902598;29;20024;-82
2023/02/02 17:28:18;;;;;;;4.25;1.83;;;11.80;63.80;;;;;;4921079;29;20024;-82
2023/02/02 17:30:47;;;;;;;2.55;1.60;;;11.70;64.10;;;;;;4919456;29;20419;-82
2023/02/02 17:33:15;;;;;;;3.38;1.77;;;11.80;64.40;;;;;;4919984;29;20103;-82
2023/02/02 17:35:42;;;;;;;2.47;1.83;;;11.70;64.10;;;;;;4913413;29;20028;-82
2023/02/02 17:38:07;;;;;;;6.72;2.00;;;11.70;64.10;;;;;;4914359;29;20039;-84
2023/02/02 17:40:33;;;;;;;3.05;1.92;;;11.70;64.30;;;;;;4900406;29;20408;-79
2023/02/02 17:43:01;;;;;;;7.25;2.80;;;11.70;64.40;;;;;;4916272;29;20033;-84
2023/02/02 17:45:33;;;;;;;7.50;3.15;;;11.70;64.80;;;;;;4914668;29;20059;-81
2023/02/02 17:48:00;;;;;;;11.00;3.30;;;11.70;64.80;;;;;;4892743;29;20029;-84
2023/02/02 17:50:27;;;;;;;7.45;2.95;;;11.70;64.80;;;;;;4922692;29;20035;-84
2023/02/02 17:52:53;;;;;;;7.45;3.05;;;11.70;65.00;;;;;;4905888;29;20028;-85
2023/02/02 17:55:20;;;;;;;6.03;2.83;;;11.60;65.10;;;;;;4923532;29;20035;-84
2023/02/02 17:57:47;;;;;;;4.93;2.15;;;11.70;65.20;;;;;;4919974;29;20123;-86
2023/02/02 18:00:16;;;;;;;6.22;2.70;;;11.60;65.20;;;;;;4909260;29;20036;-88
2023/02/02 18:02:42;;;;;;;7.43;3.38;;;11.60;65.60;;;;;;4899124;29;20115;-92
2023/02/02 18:05:09;;;;;;;6.30;3.80;;;11.60;65.70;;;;;;4932455;29;20028;-89
2023/02/02 18:07:36;;;;;;;7.53;4.15;;;11.60;65.70;;;;;;4916777;29;20479;-92
2023/02/02 18:10:03;;;;;;;8.20;4.00;;;11.50;65.70;;;;;;4924552;29;20459;-92
2023/02/02 18:12:29;;;;;;;6.15;3.53;;;11.40;65.90;;;;;;4910788;29;20111;-87
2023/02/02 18:14:54;;;;;;;5.97;3.38;;;11.40;65.90;;;;;;4927321;29;20070;-83
2023/02/02 18:17:20;;;;;;;5.13;2.85;;;11.40;66.00;;;;;;4912792;29;20024;-86
2023/02/02 18:19:49;;;;;;;5.35;2.75;;;11.50;65.90;;;;;;4927045;29;20498;-85
2023/02/02 18:22:16;;;;;;;6.60;3.27;;;11.50;66.00;;;;;;4920650;29;20032;-82
2023/02/02 18:24:42;;;;;;;4.78;2.88;;;11.50;65.90;;;;;;4916571;29;20012;-80
2023/02/02 18:27:08;;;;;;;5.68;3.85;;;11.50;66.00;;;;;;4902395;29;20044;-83
2023/02/02 18:29:34;;;;;;;4.35;2.55;;;11.50;66.10;;;;;;4920760;29;20023;-80
2023/02/02 18:32:00;;;;;;;7.15;3.22;;;11.50;66.00;;;;;;4917071;29;20055;-78
2023/02/02 18:34:30;;;;;;;10.95;3.20;;;11.50;66.30;;;;;;4920521;29;20051;-80
2023/02/02 18:36:57;;;;;;;4.50;2.90;;;11.40;66.30;;;;;;4918013;29;20043;-84
2023/02/02 18:39:23;;;;;;;7.10;3.95;;;11.50;66.40;;;;;;4920961;29;20028;-84
2023/02/02 18:41:49;;;;;;;7.60;4.57;;;11.40;66.50;;;;;;4903041;29;20522;-86
2023/02/02 18:44:14;;;;;;;7.93;5.18;;;11.40;66.70;;;;;;4903520;29;20056;-80
2023/02/02 18:46:40;;;;;;;4.13;3.35;;;11.40;66.60;;;;;;4907614;29;20032;-87
2023/02/02 18:49:05;;;;;;;7.28;3.38;;;11.50;66.40;;;;;;4902883;29;20032;-89
2023/02/02 18:51:31;;;;;;;5.80;3.22;;;11.40;66.20;;;;;;4916750;29;20028;-86
2023/02/02 18:53:59;;;;;;;5.55;3.58;;;11.40;66.20;;;;;;4918097;29;20033;-84
2023/02/02 18:56:26;;;;;;;10.13;5.05;;;11.40;66.00;;;;;;4899959;29;20044;-84